Ana Sayfa
METAR-TAF:

METAR-TAF

Havaalanları :

Eskişehir Hava Üssü

Eskişehir, Türkiye

Enlem: 39-47N, Boylam: 030-34E, yükseklik: 785 m

Güncel hava durumu gözlemi

Rapor saat 16:23 UTC de 20 saat ve 58 dakika önce yapıldı.
Rüzgar kuzeybatıdan 7 kt, batı ve kuzey/kuzeybatı arasında değişken
Sıcaklık 17°C
Nem 59%
Basınç 1016 hPa
Görüş mesafesi 10 km veya daha fazla
2500 ft yükseklikte az bulutlu, Kümülonimbus.
3500 ft yükseklikte parçalı çok bulutlu
gök gürültülü fırtına, hafif yağmur

METAR: LTBI 251623Z 31007KT 280V340 9999 -TSRA FEW025CB BKN035 17/09 Q1016 BECMG TL1700 NSW RMK RWY09 29010KT

Saat: 16:21 (13:21 UTC)

Tahmin

Rapor saat 10:40 UTC de 2 saat ve 41 dakika önce yapıldı.
Ayın 26'si saat 12 UTC'den ayın 26'si saat 21 UTC'ye kadar geçerli Tahmin
Rüzgar batı/kuzeybatıdan 8 kt
Görüş mesafesi 10 km veya daha fazla
4000 ft yükseklikte parçalı bulutlu

TAF: LTBI 261040Z 2612/2621 30008KT 9999 SCT040

4.000'den fazla havaalanı için hava durumu gözlemleri ve tahminleri (METAR ve TAF raporları).

Kullanılabilir istasyonlar harita üzerinde sarı ve kırmızı noktalarla gösterilir.

İstasyonun adını görmek için fareyi noktanın üzerinde gezdirin.

Sonrasında hava gözlem ve tahminlerini görmek için tıklayın.

Haritayı değiştirmek için: yaklaştırmak için siyah artı işaretli yeşil düğmeye ve uzaklaştırmak için de eksi işaretli düğmeye hızla tıklayın; bitişik haritalar için yeşil okları kullanın.


METAR-TAF: